Time;durP1;ratioP1;P1;durP2;ratioP2;P2;SDS_P1;SDS_P2;PMS_P1;PMS_P2;Temp;Humidity;BMP_temperature;BMP_pressure;BME280_temperature;BME280_humidity;BME280_pressure;Samples;Min_cycle;Max_cycle;Signal;HPM_P1;HPM_P2
2021/07/10 00:00:35;;;;;;;14.57;12.30;;;;;;;;;;5073004;28;20243;-67
2021/07/10 00:03:03;;;;;;;12.48;11.23;;;;;;;;;;5072851;28;20210;-67
2021/07/10 00:05:31;;;;;;;16.63;12.95;;;;;;;;;;5072767;28;20299;-66
2021/07/10 00:08:00;;;;;;;15.50;13.13;;;;;;;;;;5072714;28;20203;-67
2021/07/10 00:10:29;;;;;;;14.55;13.05;;;;;;;;;;5073029;28;20621;-68
2021/07/10 00:12:57;;;;;;;13.88;12.23;;;;;;;;;;5073072;28;20208;-67
2021/07/10 00:15:26;;;;;;;15.13;13.52;;;;;;;;;;5072581;28;20667;-66
2021/07/10 00:17:55;;;;;;;16.50;13.23;;;;;;;;;;5075726;28;20234;-68
2021/07/10 00:20:24;;;;;;;15.25;13.23;;;;;;;;;;5080227;28;20201;-66
2021/07/10 00:22:52;;;;;;;14.90;13.30;;;;;;;;;;5079417;28;20260;-67
2021/07/10 00:25:21;;;;;;;18.48;14.25;;;;;;;;;;5073398;28;20203;-67
2021/07/10 00:27:51;;;;;;;18.23;15.52;;;;;;;;;;5072940;28;20201;-67
2021/07/10 00:30:20;;;;;;;16.00;14.20;;;;;;;;;;5072501;28;20299;-66
2021/07/10 00:32:48;;;;;;;16.88;15.18;;;;;;;;;;5072934;28;20208;-67
2021/07/10 00:35:17;;;;;;;19.95;15.65;;;;;;;;;;5072807;28;20211;-66
2021/07/10 00:37:46;;;;;;;18.25;14.93;;;;;;;;;;5072614;28;20672;-67
2021/07/10 00:40:14;;;;;;;17.60;15.52;;;;;;;;;;5072759;28;20204;-67
2021/07/10 00:42:45;;;;;;;17.60;15.02;;;;;;;;;;5072673;28;20254;-67
2021/07/10 00:45:14;;;;;;;19.10;15.32;;;;;;;;;;5092404;28;20192;-67
2021/07/10 00:47:42;;;;;;;17.67;14.85;;;;;;;;;;5092918;28;20561;-67
2021/07/10 00:50:12;;;;;;;20.17;15.15;;;;;;;;;;5092475;28;20228;-66
2021/07/10 00:52:40;;;;;;;17.98;14.48;;;;;;;;;;5092731;28;20267;-66
2021/07/10 00:55:09;;;;;;;19.33;15.95;;;;;;;;;;5092662;28;20200;-67
2021/07/10 00:57:38;;;;;;;17.33;15.18;;;;;;;;;;5092414;28;20287;-66
2021/07/10 01:00:09;;;;;;;18.98;15.10;;;;;;;;;;5092511;28;20199;-67
2021/07/10 01:02:39;;;;;;;18.77;15.48;;;;;;;;;;5092577;28;20220;-66
2021/07/10 01:05:08;;;;;;;20.20;16.35;;;;;;;;;;5092284;28;20257;-68
2021/07/10 01:07:36;;;;;;;20.05;16.58;;;;;;;;;;5092343;28;20291;-67
2021/07/10 01:10:04;;;;;;;21.00;17.58;;;;;;;;;;5092377;28;20643;-66
2021/07/10 01:12:33;;;;;;;19.95;17.20;;;;;;;;;;5092599;28;20208;-66
2021/07/10 01:15:02;;;;;;;20.17;17.90;;;;;;;;;;5092367;28;20234;-67
2021/07/10 01:17:31;;;;;;;20.40;17.00;;;;;;;;;;5092276;28;20550;-67
2021/07/10 01:20:00;;;;;;;21.77;17.77;;;;;;;;;;5092124;28;20675;-67
2021/07/10 01:22:29;;;;;;;23.27;18.23;;;;;;;;;;5092423;28;20319;-67
2021/07/10 01:24:57;;;;;;;23.27;18.30;;;;;;;;;;5092494;28;20204;-67
2021/07/10 01:27:25;;;;;;;24.13;18.48;;;;;;;;;;5092411;28;20207;-67
2021/07/10 01:29:54;;;;;;;26.90;18.80;;;;;;;;;;5092159;28;20203;-67
2021/07/10 01:32:23;;;;;;;19.30;17.10;;;;;;;;;;5092430;28;20290;-66
2021/07/10 01:34:51;;;;;;;21.35;17.88;;;;;;;;;;5094193;28;20283;-66
2021/07/10 01:37:20;;;;;;;19.80;16.50;;;;;;;;;;5095945;28;20652;-67
2021/07/10 01:39:49;;;;;;;21.88;16.02;;;;;;;;;;5096074;28;20322;-67
2021/07/10 01:42:19;;;;;;;19.60;16.17;;;;;;;;;;5095835;28;20450;-66
2021/07/10 01:44:48;;;;;;;19.00;16.75;;;;;;;;;;5079239;28;20288;-67
2021/07/10 01:47:17;;;;;;;20.00;16.77;;;;;;;;;;5075456;28;20679;-67
2021/07/10 01:49:45;;;;;;;23.48;17.70;;;;;;;;;;5079078;28;20228;-67
2021/07/10 01:52:13;;;;;;;19.98;17.83;;;;;;;;;;5095605;28;20196;-67
2021/07/10 01:54:41;;;;;;;20.88;16.50;;;;;;;;;;5095727;28;20283;-67
2021/07/10 01:57:11;;;;;;;22.60;17.15;;;;;;;;;;5095784;28;20291;-67
2021/07/10 01:59:40;;;;;;;19.80;17.48;;;;;;;;;;5095586;28;20335;-67
2021/07/10 02:02:08;;;;;;;20.05;17.00;;;;;;;;;;5095457;28;20227;-66
2021/07/10 02:04:44;;;;;;;23.23;17.92;;;;;;;;;;5095710;28;20208;-65
2021/07/10 02:07:13;;;;;;;21.75;17.45;;;;;;;;;;5095408;28;20275;-66
2021/07/10 02:09:41;;;;;;;20.55;16.73;;;;;;;;;;5095231;28;20192;-66
2021/07/10 02:12:11;;;;;;;18.77;15.32;;;;;;;;;;5095103;28;20287;-67
2021/07/10 02:14:40;;;;;;;15.15;13.55;;;;;;;;;;5095364;28;20202;-67
2021/07/10 02:17:08;;;;;;;16.02;12.95;;;;;;;;;;5094902;28;20574;-66
2021/07/10 02:19:36;;;;;;;15.43;12.68;;;;;;;;;;5095340;28;20222;-66
2021/07/10 02:22:06;;;;;;;13.93;11.98;;;;;;;;;;5095047;28;20298;-67
2021/07/10 02:24:34;;;;;;;14.68;12.00;;;;;;;;;;5095121;28;20599;-67
2021/07/10 02:27:02;;;;;;;18.20;11.23;;;;;;;;;;5094890;28;20625;-67
2021/07/10 02:29:32;;;;;;;14.98;11.57;;;;;;;;;;5095149;28;20203;-67
2021/07/10 02:32:00;;;;;;;13.75;12.25;;;;;;;;;;5094898;28;20196;-66
2021/07/10 02:34:29;;;;;;;15.63;12.77;;;;;;;;;;5095221;28;20664;-68
2021/07/10 02:36:57;;;;;;;15.82;11.75;;;;;;;;;;5095089;28;20282;-67
2021/07/10 02:39:25;;;;;;;13.35;11.38;;;;;;;;;;5094822;28;20216;-67
2021/07/10 02:41:53;;;;;;;14.60;11.23;;;;;;;;;;5094703;28;20632;-67
2021/07/10 02:44:21;;;;;;;13.45;11.32;;;;;;;;;;5094672;28;20196;-67
2021/07/10 02:46:54;;;;;;;16.08;11.95;;;;;;;;;;5094727;28;20299;-66
2021/07/10 02:49:22;;;;;;;15.88;12.13;;;;;;;;;;5094609;28;20216;-66
2021/07/10 02:51:50;;;;;;;14.05;11.93;;;;;;;;;;5094764;28;20192;-67
2021/07/10 02:54:18;;;;;;;14.70;12.18;;;;;;;;;;5094759;28;20246;-66
2021/07/10 02:56:47;;;;;;;16.77;11.73;;;;;;;;;;5094743;28;20290;-66
2021/07/10 02:59:15;;;;;;;15.30;11.13;;;;;;;;;;5094588;28;20222;-66
2021/07/10 03:01:43;;;;;;;13.80;11.52;;;;;;;;;;5094258;28;20202;-67
2021/07/10 03:04:13;;;;;;;13.75;12.02;;;;;;;;;;5094164;28;20355;-66
2021/07/10 03:06:41;;;;;;;15.65;12.20;;;;;;;;;;5094519;28;20557;-66
2021/07/10 03:09:09;;;;;;;13.73;12.32;;;;;;;;;;5094154;28;20672;-66
2021/07/10 03:11:37;;;;;;;16.52;10.90;;;;;;;;;;5094394;28;20292;-67
2021/07/10 03:14:06;;;;;;;19.50;11.07;;;;;;;;;;5094052;28;20702;-66
2021/07/10 03:16:34;;;;;;;15.70;11.68;;;;;;;;;;5094083;28;20228;-67
2021/07/10 03:19:02;;;;;;;15.27;11.77;;;;;;;;;;5094183;28;20200;-67
2021/07/10 03:21:32;;;;;;;15.95;11.43;;;;;;;;;;5093889;28;20734;-66
2021/07/10 03:24:00;;;;;;;16.23;11.00;;;;;;;;;;5094088;28;20612;-66
2021/07/10 03:26:28;;;;;;;12.80;11.30;;;;;;;;;;5093870;28;20204;-66
2021/07/10 03:28:56;;;;;;;16.00;10.73;;;;;;;;;;5094097;28;20196;-66
2021/07/10 03:31:25;;;;;;;13.63;10.95;;;;;;;;;;5093797;28;20204;-67
2021/07/10 03:33:54;;;;;;;17.48;10.95;;;;;;;;;;5094036;28;20195;-66
2021/07/10 03:36:24;;;;;;;18.02;11.57;;;;;;;;;;5093925;28;20283;-67
2021/07/10 03:38:53;;;;;;;15.93;11.27;;;;;;;;;;5093651;28;20751;-67
2021/07/10 03:41:22;;;;;;;13.13;11.02;;;;;;;;;;5093801;28;20216;-67
2021/07/10 03:43:52;;;;;;;15.13;10.55;;;;;;;;;;5084770;28;20204;-66
2021/07/10 03:46:20;;;;;;;12.82;10.65;;;;;;;;;;5073250;28;20201;-66
2021/07/10 03:48:49;;;;;;;13.75;10.63;;;;;;;;;;5073311;28;20205;-66
2021/07/10 03:51:17;;;;;;;12.88;10.70;;;;;;;;;;5089377;28;20228;-66
2021/07/10 03:53:46;;;;;;;16.77;10.65;;;;;;;;;;5093197;28;20196;-67
2021/07/10 03:56:19;;;;;;;15.18;10.82;;;;;;;;;;5093572;28;20206;-66
2021/07/10 03:58:47;;;;;;;11.07;9.90;;;;;;;;;;5093233;28;20291;-66
2021/07/10 04:01:15;;;;;;;12.55;10.30;;;;;;;;;;5093117;28;20318;-66
2021/07/10 04:03:44;;;;;;;14.75;11.02;;;;;;;;;;5093447;28;20298;-67
2021/07/10 04:06:12;;;;;;;13.27;9.93;;;;;;;;;;5093376;28;20200;-67
2021/07/10 04:08:40;;;;;;;12.35;10.43;;;;;;;;;;5093429;28;20202;-67
2021/07/10 04:11:10;;;;;;;10.88;9.70;;;;;;;;;;5093307;28;20205;-65
2021/07/10 04:13:39;;;;;;;16.10;10.60;;;;;;;;;;5093054;28;20200;-66
2021/07/10 04:16:08;;;;;;;11.65;10.48;;;;;;;;;;5092919;28;20207;-66
2021/07/10 04:18:37;;;;;;;11.23;10.13;;;;;;;;;;5093277;28;20204;-65
2021/07/10 04:21:06;;;;;;;13.18;10.30;;;;;;;;;;5092813;28;20250;-66
2021/07/10 04:23:34;;;;;;;12.18;10.10;;;;;;;;;;5093166;28;20571;-65
2021/07/10 04:26:02;;;;;;;13.63;10.00;;;;;;;;;;5092714;28;20709;-66
2021/07/10 04:28:31;;;;;;;11.52;8.98;;;;;;;;;;5093138;28;20237;-66
2021/07/10 04:31:00;;;;;;;12.60;9.20;;;;;;;;;;5092460;28;20678;-66
2021/07/10 04:33:29;;;;;;;14.50;9.63;;;;;;;;;;5092791;28;20203;-66
2021/07/10 04:35:57;;;;;;;10.40;8.88;;;;;;;;;;5092996;28;20345;-66
2021/07/10 04:38:25;;;;;;;10.98;8.73;;;;;;;;;;5092989;28;20206;-67
2021/07/10 04:40:53;;;;;;;10.40;8.98;;;;;;;;;;5092595;28;20316;-66
2021/07/10 04:43:22;;;;;;;16.25;10.57;;;;;;;;;;5092859;28;20224;-66
2021/07/10 04:45:50;;;;;;;13.35;10.05;;;;;;;;;;5092299;28;20210;-67
2021/07/10 04:48:19;;;;;;;14.23;9.75;;;;;;;;;;5092813;28;20232;-67
2021/07/10 04:50:47;;;;;;;14.20;9.70;;;;;;;;;;5092412;28;20232;-66
2021/07/10 04:53:16;;;;;;;11.68;9.30;;;;;;;;;;5092851;28;20294;-68
2021/07/10 04:55:44;;;;;;;10.55;9.13;;;;;;;;;;5092804;28;20203;-67
2021/07/10 04:58:13;;;;;;;12.32;8.82;;;;;;;;;;5092817;28;20287;-68
2021/07/10 05:00:41;;;;;;;11.57;6.72;;;;;;;;;;5094179;28;20729;-67
2021/07/10 05:03:09;;;;;;;7.35;4.82;;;;;;;;;;5099081;28;20196;-67
2021/07/10 05:05:39;;;;;;;6.63;4.88;;;;;;;;;;5098180;28;20287;-67
2021/07/10 05:08:07;;;;;;;12.45;4.63;;;;;;;;;;5093707;28;20290;-66
2021/07/10 05:10:35;;;;;;;7.88;4.50;;;;;;;;;;5095724;28;20257;-67
2021/07/10 05:13:04;;;;;;;7.82;4.55;;;;;;;;;;5096719;28;20287;-67
2021/07/10 05:15:33;;;;;;;7.63;4.95;;;;;;;;;;5095991;28;20728;-68
2021/07/10 05:18:01;;;;;;;6.90;3.92;;;;;;;;;;5096253;28;20661;-66
2021/07/10 05:20:29;;;;;;;10.48;4.40;;;;;;;;;;5096491;28;20311;-66
2021/07/10 05:22:59;;;;;;;7.45;3.97;;;;;;;;;;5096239;28;20208;-67
2021/07/10 05:25:27;;;;;;;9.70;4.68;;;;;;;;;;5096553;28;20199;-67
2021/07/10 05:27:55;;;;;;;9.57;4.70;;;;;;;;;;5095781;28;20634;-67
2021/07/10 05:30:23;;;;;;;11.18;4.82;;;;;;;;;;5096088;28;20303;-67
2021/07/10 05:32:51;;;;;;;9.55;4.90;;;;;;;;;;5096265;28;20231;-68
2021/07/10 05:35:22;;;;;;;7.25;4.78;;;;;;;;;;5095999;28;20407;-66
2021/07/10 05:37:50;;;;;;;10.40;4.50;;;;;;;;;;5096017;28;20769;-67
2021/07/10 05:40:20;;;;;;;7.50;4.97;;;;;;;;;;5095932;28;20291;-65
2021/07/10 05:42:49;;;;;;;8.65;5.38;;;;;;;;;;5096163;28;20261;-66
2021/07/10 05:45:18;;;;;;;12.00;5.50;;;;;;;;;;5075239;28;20838;-66
2021/07/10 05:47:46;;;;;;;11.73;5.75;;;;;;;;;;5075836;28;20288;-67
2021/07/10 05:50:14;;;;;;;10.98;6.10;;;;;;;;;;5075391;28;20225;-66
2021/07/10 05:52:42;;;;;;;8.75;6.00;;;;;;;;;;5075758;28;20566;-66
2021/07/10 05:55:11;;;;;;;12.43;6.75;;;;;;;;;;5075822;28;20662;-67
2021/07/10 05:57:41;;;;;;;11.75;6.30;;;;;;;;;;5075702;28;20228;-66
2021/07/10 06:00:10;;;;;;;9.00;6.78;;;;;;;;;;5083334;28;20291;-67
2021/07/10 06:02:38;;;;;;;11.27;6.65;;;;;;;;;;5095813;28;20318;-68
2021/07/10 06:05:08;;;;;;;13.05;7.45;;;;;;;;;;5095881;28;20204;-67
2021/07/10 06:07:38;;;;;;;12.20;6.75;;;;;;;;;;5095826;28;20246;-68
2021/07/10 06:10:07;;;;;;;11.20;6.75;;;;;;;;;;5095719;28;20750;-67
2021/07/10 06:12:36;;;;;;;11.23;6.85;;;;;;;;;;5095527;28;20593;-66
2021/07/10 06:15:07;;;;;;;10.38;7.07;;;;;;;;;;5094942;28;20246;-67
2021/07/10 06:17:35;;;;;;;9.43;6.90;;;;;;;;;;5095601;28;20291;-68
2021/07/10 06:20:03;;;;;;;12.60;7.45;;;;;;;;;;5094888;28;20294;-65
2021/07/10 06:22:32;;;;;;;8.52;7.00;;;;;;;;;;5095460;28;20315;-67
2021/07/10 06:25:00;;;;;;;8.48;6.97;;;;;;;;;;5095352;28;20294;-66
2021/07/10 06:27:28;;;;;;;9.77;7.50;;;;;;;;;;5095329;28;20220;-66
2021/07/10 06:29:56;;;;;;;8.10;6.90;;;;;;;;;;5095094;28;20202;-67
2021/07/10 06:32:26;;;;;;;8.70;6.80;;;;;;;;;;5095372;28;20219;-66
2021/07/10 06:34:54;;;;;;;13.13;7.25;;;;;;;;;;5095026;28;20272;-68
2021/07/10 06:37:23;;;;;;;9.07;6.72;;;;;;;;;;5095062;28;20204;-68
2021/07/10 06:39:51;;;;;;;11.65;7.38;;;;;;;;;;5094810;28;20206;-67
2021/07/10 06:42:20;;;;;;;13.25;7.00;;;;;;;;;;5094614;28;20212;-67
2021/07/10 06:44:48;;;;;;;11.93;7.85;;;;;;;;;;5094406;28;20200;-66
2021/07/10 06:47:18;;;;;;;16.58;7.63;;;;;;;;;;5094726;28;20542;-65
2021/07/10 06:49:48;;;;;;;9.75;7.22;;;;;;;;;;5094607;28;20231;-65
2021/07/10 06:52:16;;;;;;;12.07;7.57;;;;;;;;;;5094917;28;20544;-66
2021/07/10 06:54:44;;;;;;;10.20;7.28;;;;;;;;;;5094740;28;20199;-66
2021/07/10 06:57:12;;;;;;;9.48;7.40;;;;;;;;;;5094782;28;20210;-66
2021/07/10 06:59:40;;;;;;;11.00;7.32;;;;;;;;;;5094708;28;20295;-66
2021/07/10 07:02:09;;;;;;;10.25;7.22;;;;;;;;;;5094249;28;20219;-66
2021/07/10 07:04:39;;;;;;;10.48;7.28;;;;;;;;;;5094646;28;20211;-67
2021/07/10 07:07:08;;;;;;;10.60;7.75;;;;;;;;;;5094069;28;20819;-66
2021/07/10 07:09:37;;;;;;;10.32;6.72;;;;;;;;;;5094569;28;20203;-66
2021/07/10 07:12:05;;;;;;;9.50;7.57;;;;;;;;;;5094332;28;20303;-65
2021/07/10 07:14:33;;;;;;;8.98;6.90;;;;;;;;;;5094452;28;20756;-66
2021/07/10 07:17:03;;;;;;;10.98;7.78;;;;;;;;;;5094119;28;20224;-66
2021/07/10 07:19:32;;;;;;;9.73;7.72;;;;;;;;;;5094364;28;20291;-67
2021/07/10 07:22:00;;;;;;;9.75;7.57;;;;;;;;;;5094163;28;20246;-67
2021/07/10 07:24:30;;;;;;;10.05;8.07;;;;;;;;;;5094053;28;20212;-65
2021/07/10 07:26:58;;;;;;;13.00;8.02;;;;;;;;;;5094132;28;20200;-64
2021/07/10 07:29:26;;;;;;;8.55;7.80;;;;;;;;;;5094076;28;20196;-66
2021/07/10 07:31:54;;;;;;;12.88;7.88;;;;;;;;;;5092953;28;20291;-65
2021/07/10 07:34:23;;;;;;;10.35;7.80;;;;;;;;;;5094027;28;20587;-68
2021/07/10 07:36:51;;;;;;;12.68;7.80;;;;;;;;;;5093901;28;20204;-66
2021/07/10 07:39:19;;;;;;;11.23;8.80;;;;;;;;;;5093991;28;20204;-66
2021/07/10 07:41:49;;;;;;;10.82;8.38;;;;;;;;;;5093853;28;20230;-66
2021/07/10 07:44:18;;;;;;;12.00;7.63;;;;;;;;;;5093734;28;20906;-66
2021/07/10 07:46:46;;;;;;;10.30;8.13;;;;;;;;;;5093545;28;20732;-68
2021/07/10 07:49:14;;;;;;;9.75;8.73;;;;;;;;;;5093862;28;20196;-67
2021/07/10 07:51:42;;;;;;;10.70;8.40;;;;;;;;;;5093143;28;20323;-65
2021/07/10 07:54:10;;;;;;;10.70;8.15;;;;;;;;;;5093559;28;20211;-65
2021/07/10 07:56:39;;;;;;;11.43;9.18;;;;;;;;;;5093268;28;20204;-68
2021/07/10 07:59:09;;;;;;;10.98;7.97;;;;;;;;;;5093445;28;20253;-69
2021/07/10 08:01:37;;;;;;;11.15;8.60;;;;;;;;;;5082597;28;20185;-66
2021/07/10 08:04:06;;;;;;;11.60;9.50;;;;;;;;;;5073087;28;20201;-67
2021/07/10 08:06:34;;;;;;;10.65;9.10;;;;;;;;;;5073008;28;20303;-67
2021/07/10 08:09:02;;;;;;;10.98;7.70;;;;;;;;;;5072966;28;20759;-65
2021/07/10 08:11:30;;;;;;;14.55;9.63;;;;;;;;;;5072688;28;20643;-65
2021/07/10 08:13:58;;;;;;;10.23;9.05;;;;;;;;;;5072645;28;20291;-65
2021/07/10 08:16:28;;;;;;;12.23;9.55;;;;;;;;;;5072536;28;20288;-67
2021/07/10 08:18:56;;;;;;;12.20;10.88;;;;;;;;;;5072654;28;20207;-67
2021/07/10 08:21:27;;;;;;;13.93;10.80;;;;;;;;;;5072702;28;20229;-67
2021/07/10 08:23:55;;;;;;;11.60;10.40;;;;;;;;;;5072679;28;20235;-66
2021/07/10 08:26:24;;;;;;;14.75;11.40;;;;;;;;;;5072470;28;20310;-66
2021/07/10 08:28:52;;;;;;;11.98;9.60;;;;;;;;;;5072258;28;20291;-65
2021/07/10 08:31:20;;;;;;;18.08;11.45;;;;;;;;;;5072034;28;20208;-65
2021/07/10 08:33:50;;;;;;;11.35;10.10;;;;;;;;;;5072602;28;20193;-66
2021/07/10 08:36:18;;;;;;;11.70;10.40;;;;;;;;;;5072555;28;20203;-67
2021/07/10 08:38:46;;;;;;;12.35;11.00;;;;;;;;;;5072536;28;20197;-66
2021/07/10 08:41:15;;;;;;;13.65;10.68;;;;;;;;;;5072682;28;20201;-66
2021/07/10 08:43:44;;;;;;;16.25;10.73;;;;;;;;;;5079766;28;20230;-66
2021/07/10 08:46:15;;;;;;;12.20;10.48;;;;;;;;;;5092370;28;20199;-66
2021/07/10 08:48:43;;;;;;;14.38;10.77;;;;;;;;;;5089802;28;20240;-68
2021/07/10 08:51:13;;;;;;;10.95;9.93;;;;;;;;;;5072143;28;20224;-63
2021/07/10 08:53:41;;;;;;;12.20;10.90;;;;;;;;;;5071990;28;20696;-63
2021/07/10 08:56:10;;;;;;;12.98;11.65;;;;;;;;;;5072468;28;20291;-64
2021/07/10 08:58:38;;;;;;;18.13;11.70;;;;;;;;;;5072052;28;20200;-64
2021/07/10 09:01:08;;;;;;;11.40;10.23;;;;;;;;;;5071812;28;20224;-65
2021/07/10 09:03:37;;;;;;;10.75;9.65;;;;;;;;;;5072011;28;20219;-65
2021/07/10 09:06:05;;;;;;;11.85;10.65;;;;;;;;;;5072042;28;20598;-64
2021/07/10 09:08:35;;;;;;;14.38;10.90;;;;;;;;;;5072271;28;20200;-64
2021/07/10 09:11:05;;;;;;;12.13;11.02;;;;;;;;;;5072064;28;20740;-63
2021/07/10 09:13:35;;;;;;;15.25;10.82;;;;;;;;;;5072309;28;20189;-64
2021/07/10 09:16:05;;;;;;;15.63;12.40;;;;;;;;;;5071648;28;20212;-64
2021/07/10 09:18:37;;;;;;;12.45;11.13;;;;;;;;;;5072313;28;20239;-70
2021/07/10 09:21:05;;;;;;;12.55;11.38;;;;;;;;;;5072116;28;20280;-66
2021/07/10 09:23:39;;;;;;;14.27;12.82;;;;;;;;;;5072037;28;20217;-66
2021/07/10 09:26:14;;;;;;;13.43;11.77;;;;;;;;;;5071888;28;20189;-65
2021/07/10 09:28:43;;;;;;;13.70;12.50;;;;;;;;;;5071863;28;20291;-65
2021/07/10 09:31:15;;;;;;;12.60;11.25;;;;;;;;;;5071429;28;20755;-64
2021/07/10 09:33:43;;;;;;;12.43;11.32;;;;;;;;;;5072010;28;20238;-65
2021/07/10 09:36:12;;;;;;;12.38;10.90;;;;;;;;;;5072094;28;20219;-66
2021/07/10 09:38:44;;;;;;;12.20;11.10;;;;;;;;;;5071469;28;20651;-66
2021/07/10 09:41:14;;;;;;;12.85;11.32;;;;;;;;;;5071600;28;20181;-67
2021/07/10 09:43:42;;;;;;;12.75;11.55;;;;;;;;;;5079156;28;20308;-68
2021/07/10 09:46:11;;;;;;;13.40;11.38;;;;;;;;;;5091773;28;20196;-67
2021/07/10 09:48:40;;;;;;;13.20;11.88;;;;;;;;;;5091860;28;20286;-70
2021/07/10 09:51:20;;;;;;;12.13;10.90;;;;;;;;;;5091382;28;20232;-67
2021/07/10 09:54:00;;;;;;;12.65;11.27;;;;;;;;;;5091776;28;20185;-68
2021/07/10 09:56:28;;;;;;;12.50;11.30;;;;;;;;;;5094275;28;20195;-68
2021/07/10 09:58:57;;;;;;;12.20;10.20;;;;;;;;;;5095606;28;20204;-68
2021/07/10 10:01:28;;;;;;;11.73;10.55;;;;;;;;;;5094907;28;20203;-69
2021/07/10 10:03:57;;;;;;;12.95;10.82;;;;;;;;;;5094586;28;20228;-67
2021/07/10 10:06:29;;;;;;;11.00;9.82;;;;;;;;;;5094827;28;20218;-68
2021/07/10 10:08:57;;;;;;;11.25;10.25;;;;;;;;;;5095057;28;20651;-67
2021/07/10 10:11:27;;;;;;;13.10;10.18;;;;;;;;;;5098382;28;20690;-68
2021/07/10 10:14:08;;;;;;;10.32;9.02;;;;;;;;;;5095539;28;20669;-68
2021/07/10 10:16:37;;;;;;;10.63;9.55;;;;;;;;;;5094252;28;20206;-69
2021/07/10 10:19:06;;;;;;;13.30;10.70;;;;;;;;;;5094230;28;20261;-68
2021/07/10 10:21:34;;;;;;;9.45;8.63;;;;;;;;;;5094425;28;20219;-68
2021/07/10 10:24:02;;;;;;;10.38;9.30;;;;;;;;;;5094421;28;20699;-68
2021/07/10 10:26:32;;;;;;;9.60;8.70;;;;;;;;;;5093897;28;20199;-68
2021/07/10 10:29:00;;;;;;;10.07;9.18;;;;;;;;;;5094361;28;20207;-68
2021/07/10 10:31:29;;;;;;;12.45;9.68;;;;;;;;;;5094139;28;20208;-67
2021/07/10 10:33:57;;;;;;;9.55;8.68;;;;;;;;;;5093888;28;20285;-69
2021/07/10 10:36:26;;;;;;;10.80;9.23;;;;;;;;;;5093794;28;20206;-68
2021/07/10 10:38:54;;;;;;;10.20;9.23;;;;;;;;;;5093976;28;20244;-67
2021/07/10 10:41:23;;;;;;;10.38;9.38;;;;;;;;;;5093654;28;20672;-67
2021/07/10 10:43:55;;;;;;;11.10;8.55;;;;;;;;;;5084733;28;20265;-66
2021/07/10 10:46:24;;;;;;;10.07;9.07;;;;;;;;;;5073559;28;20276;-65
2021/07/10 10:48:53;;;;;;;9.07;8.20;;;;;;;;;;5073640;28;20283;-66
2021/07/10 10:51:25;;;;;;;9.15;8.13;;;;;;;;;;5089861;28;20235;-68
2021/07/10 10:53:54;;;;;;;9.45;8.50;;;;;;;;;;5093733;28;20180;-68
2021/07/10 10:56:38;;;;;;;9.80;8.80;;;;;;;;;;5093241;28;20694;-67
2021/07/10 10:59:23;;;;;;;9.73;8.73;;;;;;;;;;5093334;28;20290;-67
2021/07/10 11:01:53;;;;;;;10.18;8.27;;;;;;;;;;5092298;28;20210;-68
2021/07/10 11:04:36;;;;;;;11.15;8.68;;;;;;;;;;5092714;28;20753;-67
2021/07/10 11:07:28;;;;;;;11.48;9.00;;;;;;;;;;5091740;28;20250;-68
2021/07/10 11:10:06;;;;;;;11.48;9.23;;;;;;;;;;5077947;28;20558;-68
2021/07/10 11:12:51;;;;;;;9.02;8.23;;;;;;;;;;5093300;28;20207;-66
2021/07/10 11:15:38;;;;;;;9.90;8.90;;;;;;;;;;5092931;28;20275;-68
2021/07/10 11:18:08;;;;;;;9.25;8.35;;;;;;;;;;5093246;28;20204;-68
2021/07/10 11:20:46;;;;;;;9.82;8.88;;;;;;;;;;5093172;28;20234;-66
2021/07/10 11:23:26;;;;;;;10.32;9.32;;;;;;;;;;5092887;28;20199;-67
2021/07/10 11:25:57;;;;;;;9.93;9.00;;;;;;;;;;5093163;28;20282;-68
2021/07/10 11:28:26;;;;;;;9.45;8.55;;;;;;;;;;5092957;28;20283;-68
2021/07/10 11:30:55;;;;;;;7.93;7.22;;;;;;;;;;5092590;28;20204;-66
2021/07/10 11:33:42;;;;;;;8.00;7.20;;;;;;;;;;5092851;28;20204;-65
2021/07/10 11:36:25;;;;;;;8.13;7.43;;;;;;;;;;5092805;28;20290;-65
2021/07/10 11:38:54;;;;;;;11.00;8.55;;;;;;;;;;5092776;28;20186;-65
2021/07/10 11:41:28;;;;;;;10.05;8.73;;;;;;;;;;5092469;28;20586;-62
2021/07/10 11:44:11;;;;;;;9.35;8.45;;;;;;;;;;5092599;28;20208;-64
2021/07/10 11:47:05;;;;;;;8.27;7.47;;;;;;;;;;5092430;28;20184;-64
2021/07/10 11:49:40;;;;;;;9.32;8.52;;;;;;;;;;5093375;28;20185;-65
2021/07/10 11:52:09;;;;;;;9.55;8.32;;;;;;;;;;5092116;28;20647;-65
2021/07/10 11:54:40;;;;;;;8.82;8.10;;;;;;;;;;5092436;28;20199;-64
2021/07/10 11:57:09;;;;;;;10.07;8.63;;;;;;;;;;5092433;28;20539;-66
2021/07/10 11:59:38;;;;;;;8.95;8.18;;;;;;;;;;5091981;28;20667;-69
2021/07/10 12:02:17;;;;;;;8.95;8.05;;;;;;;;;;5091989;28;20189;-66
2021/07/10 12:04:59;;;;;;;8.80;8.10;;;;;;;;;;5092158;28;20318;-66
2021/07/10 12:07:28;;;;;;;8.13;7.43;;;;;;;;;;5093218;28;20212;-65
2021/07/10 12:09:57;;;;;;;8.90;8.20;;;;;;;;;;5086728;28;20223;-66
2021/07/10 12:12:26;;;;;;;9.10;8.30;;;;;;;;;;5075332;28;20214;-68
2021/07/10 12:14:54;;;;;;;8.75;7.85;;;;;;;;;;5092346;28;20295;-68
2021/07/10 12:17:23;;;;;;;8.70;7.80;;;;;;;;;;5092081;28;20206;-68
2021/07/10 12:19:54;;;;;;;8.95;8.15;;;;;;;;;;5092754;28;20184;-68
2021/07/10 12:22:55;;;;;;;9.43;8.27;;;;;;;;;;5084885;28;20310;-66
2021/07/10 12:25:26;;;;;;;8.02;7.32;;;;;;;;;;5086382;28;20314;-63
2021/07/10 12:27:55;;;;;;;8.23;7.43;;;;;;;;;;5092741;28;20234;-61
2021/07/10 12:30:37;;;;;;;9.23;8.43;;;;;;;;;;5072419;28;20205;-67
2021/07/10 12:33:05;;;;;;;8.88;7.97;;;;;;;;;;5079375;28;20232;-67
2021/07/10 12:35:34;;;;;;;8.55;7.70;;;;;;;;;;5092662;28;20196;-67
2021/07/10 12:38:11;;;;;;;8.48;7.72;;;;;;;;;;5092392;28;20199;-65
2021/07/10 12:40:41;;;;;;;7.43;6.90;;;;;;;;;;5092506;28;20227;-67
2021/07/10 12:43:09;;;;;;;7.75;7.05;;;;;;;;;;5092342;28;20592;-65
2021/07/10 12:45:37;;;;;;;8.85;7.18;;;;;;;;;;5092081;28;20778;-65
2021/07/10 12:48:06;;;;;;;7.90;7.22;;;;;;;;;;5092139;28;20208;-66
2021/07/10 12:50:34;;;;;;;8.60;7.80;;;;;;;;;;5091925;28;20220;-67
2021/07/10 12:53:10;;;;;;;8.20;7.07;;;;;;;;;;5092131;28;20609;-65
2021/07/10 12:55:49;;;;;;;7.88;7.25;;;;;;;;;;5092106;28;20200;-65
2021/07/10 12:58:17;;;;;;;8.43;7.28;;;;;;;;;;5092127;28;20670;-68
2021/07/10 13:00:45;;;;;;;9.15;8.27;;;;;;;;;;5092327;28;20310;-67
2021/07/10 13:03:19;;;;;;;8.10;7.50;;;;;;;;;;5092325;28;20204;-66
2021/07/10 13:05:48;;;;;;;7.88;6.95;;;;;;;;;;5092348;28;20309;-65
2021/07/10 13:08:17;;;;;;;7.28;6.68;;;;;;;;;;5092346;28;20211;-67
2021/07/10 13:10:48;;;;;;;7.80;7.13;;;;;;;;;;5092350;28;20204;-68
2021/07/10 13:13:18;;;;;;;7.93;7.20;;;;;;;;;;5092373;28;20183;-66
2021/07/10 13:15:48;;;;;;;8.43;7.68;;;;;;;;;;5092129;28;20188;-67
2021/07/10 13:18:17;;;;;;;8.13;7.43;;;;;;;;;;5092293;28;20295;-67
2021/07/10 13:20:47;;;;;;;9.02;8.23;;;;;;;;;;5092200;28;20294;-72
2021/07/10 13:23:28;;;;;;;8.60;7.20;;;;;;;;;;5092149;28;20600;-67
2021/07/10 13:25:57;;;;;;;8.02;7.43;;;;;;;;;;5071536;28;20263;-67
2021/07/10 13:28:27;;;;;;;8.00;7.30;;;;;;;;;;5071789;28;20236;-68
2021/07/10 13:30:56;;;;;;;8.75;7.95;;;;;;;;;;5073756;28;20196;-68
2021/07/10 13:33:28;;;;;;;8.10;7.40;;;;;;;;;;5087658;28;20225;-68
2021/07/10 13:36:07;;;;;;;7.95;7.25;;;;;;;;;;5095703;28;20672;-69
2021/07/10 13:38:36;;;;;;;7.50;6.80;;;;;;;;;;5095759;28;20279;-69
2021/07/10 13:41:20;;;;;;;7.45;6.85;;;;;;;;;;5095829;28;20180;-68
2021/07/10 13:43:58;;;;;;;7.55;6.95;;;;;;;;;;5095960;28;20555;-69
2021/07/10 13:46:30;;;;;;;7.95;6.93;;;;;;;;;;5095692;28;20227;-68
2021/07/10 13:48:59;;;;;;;7.28;6.60;;;;;;;;;;5095511;28;20204;-64
2021/07/10 13:51:27;;;;;;;7.63;6.93;;;;;;;;;;5095224;28;20227;-62
2021/07/10 13:53:56;;;;;;;7.80;7.10;;;;;;;;;;5095582;28;20291;-62
2021/07/10 13:56:26;;;;;;;7.57;6.85;;;;;;;;;;5095712;28;20200;-62
2021/07/10 13:59:01;;;;;;;7.68;6.90;;;;;;;;;;5095327;28;20207;-61
2021/07/10 14:01:30;;;;;;;6.60;6.10;;;;;;;;;;5095141;28;20234;-60
2021/07/10 14:03:58;;;;;;;6.97;6.47;;;;;;;;;;5095529;28;20239;-62
2021/07/10 14:06:26;;;;;;;7.38;6.68;;;;;;;;;;5095482;28;20212;-61
2021/07/10 14:08:54;;;;;;;6.55;6.05;;;;;;;;;;5095323;28;20286;-62
2021/07/10 14:11:22;;;;;;;7.22;6.53;;;;;;;;;;5095177;28;20200;-62
2021/07/10 14:13:52;;;;;;;6.95;6.35;;;;;;;;;;5095033;28;20200;-61
2021/07/10 14:16:21;;;;;;;8.15;7.35;;;;;;;;;;5095189;28;20238;-63
2021/07/10 14:18:49;;;;;;;7.10;5.88;;;;;;;;;;5095161;28;20200;-62
2021/07/10 14:21:17;;;;;;;6.43;5.97;;;;;;;;;;5094974;28;20200;-63
2021/07/10 14:23:45;;;;;;;7.10;6.40;;;;;;;;;;5094953;28;20208;-60
2021/07/10 14:26:14;;;;;;;6.72;6.07;;;;;;;;;;5092112;28;20224;-60
2021/07/10 14:28:42;;;;;;;6.72;5.93;;;;;;;;;;5094960;28;20199;-61
2021/07/10 14:31:12;;;;;;;6.38;5.88;;;;;;;;;;5094631;28;20210;-61
2021/07/10 14:33:40;;;;;;;6.50;6.00;;;;;;;;;;5094509;28;20196;-59
2021/07/10 14:36:08;;;;;;;6.13;5.53;;;;;;;;;;5094714;28;20192;-61
2021/07/10 14:38:37;;;;;;;6.60;6.10;;;;;;;;;;5094604;28;20206;-61
2021/07/10 14:41:07;;;;;;;6.00;5.50;;;;;;;;;;5093681;28;20211;-62
2021/07/10 14:43:36;;;;;;;6.05;5.55;;;;;;;;;;5094372;28;20204;-61